Airfield :
LOGIN :

Register | Disclaimer

   EN    FR    IT 

 










Legend :    VFR   Marginal VFR   IFR   Intensive IFR   Very Intensive IFR
Visi :
Ceiling :
>= 8 km
>= 3000ft
5 to 8 km
1000 to 3000 ft
1500m to 5 km
500 to 1000 ft
800 to 1500m
200 to 500 ft
< 800m
< 200 ft
Symbols :   Thunderstorms  Fog  Heavy snow  Heavy precipitations  Wind > 20 kt
SIGMETs :     Misc.  Thunderstorms  Icing  Turbulence  Mountain Waves  Volcanic Ashes






- Airport Elevation : 1300 ft
- IATA code : LIG


LFBL - Limoges

CURRENT METAR :
  • 010700Z AUTO 26004KT 220V290 9999 BKN004 BKN041 OVC076 13/12 Q1015 TEMPO 4000 BR VV///

EXPIRED METARs :
  • 010630Z AUTO 27005KT 230V300 9999 BKN004 OVC078 12/12 Q1015 TEMPO 4000 BR VV///
  • 010600Z AUTO 27004KT 9999 BKN003 BKN078 12/12 Q1015 TEMPO 0300 FG VV///
  • 010530Z AUTO VRB03KT 0600 0350 R21/P5000 R03/0800U FG FEW003 11/11 Q1015 BECMG 9999 NSW SCT018TCU
  • 010500Z AUTO VRB03KT 3200 0500 R21/P5000 R03/0700N BCFG FEW002 SCT190 11/11 Q1015 TEMPO 0700 FG VV///
  • 010430Z AUTO 24003KT 5000 0800 R21/P5000 R03/1300D BCFG FEW001 BKN190 BKN240 11/11 Q1014 TEMPO 0700 FG VV///

TAF TAF LFBL
Valid from the 01 at 06:00 until the 02 at 06:00 UTC


010500Z 0106/0206 VRB02KT CAVOK
TEMPO 0106/0109 4000 BR BKN004
PROB40
TEMPO 0106/0108 0300 FG VV///
BECMG 0109/0111 26008KT SCT015TCU BKN035
PROB40
TEMPO 0111/0121 4000 SHRA SCT025CB BKN060
BECMG 0117/0119 VRB02KT
BECMG 0121/0123 CAVOK
TEMPO 0202/0206 4000 BR
PROB40
TEMPO 0204/0206 0600 FG VV///
ATIS : +33 5 55 48 40 37



MET'MAP, your aeronautical weather chart ! - Copyright ORBIFLY December 2007 - Disclaimer

ORBIFLY MET'MAP TEAM :

Programming & Development : Alexandra Zaïnal
Concept & original design : Baudouin d'Aumeries
Assistance for programming : Marc-Olivier Méhu
Technical & hardware support : Manuel Goepfert

Contact : metmap@orbifly.com




SOURCES & CREDITS :

   NOAA